METAR Data
IDs: Format: Raw Decoded Include TAF

Data at: 0338 UTC 03 Jul 2022

KORS 030335Z AUTO 17011KT 10SM CLR 16/12 A2983 RMK AO2